Time;durP1;ratioP1;P1;durP2;ratioP2;P2;SDS_P1;SDS_P2;PMS_P1;PMS_P2;Temp;Humidity;BMP_temperature;BMP_pressure;BME280_temperature;BME280_humidity;BME280_pressure;Samples;Min_cycle;Max_cycle;Signal;HPM_P1;HPM_P2
2022/11/08 00:02:03;;;;;;;7.45;3.40;;;14.30;46.40;;;;;;5051934;28;20164;-43
2022/11/08 00:04:29;;;;;;;5.03;2.20;;;14.40;46.50;;;;;;5051803;28;20192;-43
2022/11/08 00:15:08;;;;;;;4.13;2.60;;;14.40;46.30;;;;;;5051833;28;20269;-42
2022/11/08 00:17:33;;;;;;;5.38;3.47;;;14.30;46.30;;;;;;5051154;28;20268;-43
2022/11/08 00:19:59;;;;;;;4.80;2.80;;;14.30;46.30;;;;;;5052022;28;20260;-43
2022/11/08 00:22:28;;;;;;;4.20;2.67;;;14.30;46.40;;;;;;5055639;28;20192;-42
2022/11/08 00:24:53;;;;;;;4.63;4.10;;;14.40;46.50;;;;;;5055448;28;20173;-42
2022/11/08 00:27:21;;;;;;;6.60;3.73;;;14.40;46.30;;;;;;5055053;28;20184;-42
2022/11/08 00:29:48;;;;;;;12.65;2.92;;;14.40;46.30;;;;;;5055431;28;20169;-42
2022/11/08 00:32:20;;;;;;;4.78;2.97;;;14.40;46.30;;;;;;5055490;28;20180;-43
2022/11/08 00:34:47;;;;;;;7.97;3.22;;;14.40;46.20;;;;;;5055380;28;20169;-42
2022/11/08 00:37:14;;;;;;;8.40;3.30;;;14.40;46.20;;;;;;5054656;28;20704;-43
2022/11/08 00:39:40;;;;;;;5.80;2.83;;;14.40;46.30;;;;;;5055161;28;20260;-43
2022/11/08 00:42:05;;;;;;;9.07;2.77;;;14.50;46.40;;;;;;5055410;28;20307;-43
2022/11/08 00:44:31;;;;;;;2.63;1.83;;;14.40;46.10;;;;;;5055482;28;20667;-42
2022/11/08 00:46:57;;;;;;;8.17;3.07;;;14.40;46.30;;;;;;5054630;28;20415;-43
2022/11/08 00:49:23;;;;;;;4.70;2.83;;;14.40;46.40;;;;;;5055083;28;20224;-43
2022/11/08 00:51:49;;;;;;;3.90;2.93;;;14.40;46.30;;;;;;5054971;28;20223;-43
2022/11/08 00:54:18;;;;;;;2.80;2.03;;;14.40;46.30;;;;;;5054910;28;20185;-43
2022/11/08 00:56:45;;;;;;;5.75;2.78;;;14.50;46.30;;;;;;5054372;28;20396;-43
2022/11/08 00:59:15;;;;;;;5.40;2.80;;;14.40;46.20;;;;;;5055040;28;20180;-43
2022/11/08 01:01:41;;;;;;;6.18;2.45;;;14.40;46.20;;;;;;5054821;28;20166;-43
2022/11/08 01:04:09;;;;;;;3.53;2.70;;;14.40;46.30;;;;;;5054736;28;20227;-43
2022/11/08 01:06:35;;;;;;;5.55;2.95;;;14.40;46.40;;;;;;5054001;28;20169;-43
2022/11/08 01:09:00;;;;;;;4.43;2.20;;;14.40;46.40;;;;;;5054542;28;20216;-43
2022/11/08 01:11:27;;;;;;;11.60;2.67;;;14.40;46.70;;;;;;5054896;28;20911;-43
2022/11/08 01:13:57;;;;;;;6.20;2.70;;;14.40;46.70;;;;;;5054444;28;20454;-43
2022/11/08 01:16:25;;;;;;;5.10;2.90;;;14.40;46.90;;;;;;5054058;28;20177;-44
2022/11/08 01:18:52;;;;;;;5.07;2.95;;;14.40;46.70;;;;;;5054781;28;20176;-43
2022/11/08 01:21:18;;;;;;;3.92;2.55;;;14.40;46.70;;;;;;5054433;28;20181;-43
2022/11/08 01:23:45;;;;;;;6.88;2.63;;;14.30;47.30;;;;;;5054550;28;20200;-43
2022/11/08 01:26:13;;;;;;;6.60;3.08;;;14.30;46.50;;;;;;5053836;28;20185;-42
2022/11/08 01:28:39;;;;;;;5.00;2.65;;;14.20;46.40;;;;;;5054162;28;20208;-43
2022/11/08 01:31:08;;;;;;;4.30;2.73;;;14.20;46.30;;;;;;5054306;28;20546;-43
2022/11/08 01:33:35;;;;;;;4.47;2.45;;;14.20;46.40;;;;;;5053295;28;20428;-43
2022/11/08 01:36:01;;;;;;;6.90;2.92;;;14.20;46.40;;;;;;5053819;28;20606;-43
2022/11/08 01:38:26;;;;;;;6.50;2.57;;;14.10;46.50;;;;;;5054157;28;20260;-43
2022/11/08 01:40:53;;;;;;;7.50;3.53;;;14.10;46.90;;;;;;5054380;28;20169;-43
2022/11/08 01:43:24;;;;;;;5.60;3.13;;;14.00;47.00;;;;;;5054049;28;20822;-43
2022/11/08 01:46:19;;;;;;;5.90;2.97;;;14.00;47.20;;;;;;5053462;28;20259;-43
2022/11/08 01:49:09;;;;;;;9.25;2.72;;;14.00;46.90;;;;;;5053101;28;20677;-43
2022/11/08 01:52:00;;;;;;;3.00;2.33;;;14.00;47.00;;;;;;5054202;28;20185;-43
2022/11/08 01:54:47;;;;;;;5.05;3.20;;;13.90;47.00;;;;;;5052971;28;20569;-44
2022/11/08 01:57:18;;;;;;;4.97;2.60;;;13.90;47.10;;;;;;5053277;28;20172;-43
2022/11/08 01:59:49;;;;;;;4.63;3.15;;;13.80;46.90;;;;;;5053798;28;20177;-43
2022/11/08 02:02:14;;;;;;;5.25;4.20;;;13.80;46.90;;;;;;5053789;28;20648;-43
2022/11/08 02:04:42;;;;;;;8.10;2.90;;;13.80;46.90;;;;;;5053604;28;20197;-43
2022/11/08 02:07:10;;;;;;;5.65;2.60;;;13.70;47.00;;;;;;5052939;28;20961;-43
2022/11/08 02:09:38;;;;;;;3.72;3.33;;;13.70;47.20;;;;;;5053538;28;20668;-43
2022/11/08 02:12:06;;;;;;;3.80;2.58;;;13.70;47.00;;;;;;5053461;28;20234;-42
2022/11/08 02:14:32;;;;;;;4.30;2.55;;;13.60;47.20;;;;;;5053370;28;20204;-43
2022/11/08 02:16:58;;;;;;;4.60;3.00;;;13.60;47.30;;;;;;5052782;28;20169;-43
2022/11/08 02:19:43;;;;;;;5.37;2.80;;;13.60;47.20;;;;;;5053288;28;20184;-43
2022/11/08 02:22:21;;;;;;;4.10;2.28;;;13.60;47.10;;;;;;5053678;28;20189;-42
2022/11/08 02:24:47;;;;;;;5.25;3.45;;;13.50;47.20;;;;;;5053329;28;20166;-43
2022/11/08 02:27:13;;;;;;;4.27;3.10;;;13.40;47.80;;;;;;5052617;28;20170;-42
2022/11/08 02:29:39;;;;;;;6.85;2.70;;;13.40;47.70;;;;;;5053196;28;20196;-43
2022/11/08 02:32:06;;;;;;;5.47;2.60;;;13.40;48.00;;;;;;5053143;28;20511;-43
2022/11/08 02:34:40;;;;;;;4.45;2.70;;;13.40;47.80;;;;;;5052991;28;20193;-43
2022/11/08 02:37:06;;;;;;;4.90;2.67;;;13.40;47.60;;;;;;5052496;28;20157;-43
2022/11/08 02:39:33;;;;;;;8.52;2.60;;;13.40;47.50;;;;;;5053259;28;20226;-43
2022/11/08 02:42:00;;;;;;;3.15;2.40;;;13.30;47.30;;;;;;5052890;28;20661;-43
2022/11/08 02:44:25;;;;;;;5.93;2.90;;;13.30;47.30;;;;;;5051771;28;20205;-43
2022/11/08 02:46:51;;;;;;;9.37;3.03;;;13.20;47.30;;;;;;5052385;28;20184;-43
2022/11/08 02:49:17;;;;;;;6.17;2.57;;;13.20;47.50;;;;;;5052848;28;20296;-42
2022/11/08 02:51:42;;;;;;;3.33;2.20;;;13.20;47.40;;;;;;5052743;28;20596;-43
2022/11/08 02:54:08;;;;;;;3.40;2.53;;;13.10;47.40;;;;;;5052726;28;20197;-43
2022/11/08 02:56:34;;;;;;;9.60;3.40;;;13.00;47.20;;;;;;5052172;28;20169;-43
2022/11/08 02:59:00;;;;;;;6.50;2.50;;;13.00;47.20;;;;;;5052890;28;20173;-43
2022/11/08 03:01:25;;;;;;;8.40;3.37;;;13.00;47.30;;;;;;5052572;28;20536;-43
2022/11/08 03:03:51;;;;;;;3.73;2.63;;;12.90;47.30;;;;;;5052394;28;20189;-43
2022/11/08 03:06:17;;;;;;;5.70;3.03;;;12.90;47.40;;;;;;5052258;28;20181;-43
2022/11/08 03:08:43;;;;;;;4.27;3.03;;;12.90;47.40;;;;;;5052398;28;20669;-43
2022/11/08 03:11:08;;;;;;;5.10;3.53;;;12.90;47.50;;;;;;5052718;28;20169;-43
2022/11/08 03:13:34;;;;;;;4.50;2.87;;;12.80;47.70;;;;;;5052142;28;20295;-43
2022/11/08 03:16:04;;;;;;;4.53;2.83;;;12.80;47.60;;;;;;5051766;28;20252;-43
2022/11/08 03:18:30;;;;;;;5.43;3.47;;;12.80;47.60;;;;;;5052743;28;20184;-43
2022/11/08 03:20:59;;;;;;;4.35;3.88;;;12.80;47.80;;;;;;5052291;28;20172;-43
2022/11/08 03:23:24;;;;;;;4.80;3.05;;;12.70;47.70;;;;;;5052239;28;20197;-43
2022/11/08 03:25:50;;;;;;;5.37;3.60;;;12.70;47.60;;;;;;5051620;28;20569;-43
2022/11/08 03:28:16;;;;;;;7.33;4.53;;;12.70;47.60;;;;;;5052075;28;20200;-43
2022/11/08 03:30:42;;;;;;;6.63;3.93;;;12.70;48.10;;;;;;5052160;28;20176;-43
2022/11/08 03:33:07;;;;;;;5.47;2.67;;;12.70;48.10;;;;;;5052073;28;20185;-43
2022/11/08 03:35:33;;;;;;;7.33;4.30;;;12.80;48.10;;;;;;5051472;28;20272;-42
2022/11/08 03:37:59;;;;;;;4.60;3.63;;;12.70;47.90;;;;;;5052348;28;20264;-43
2022/11/08 03:40:25;;;;;;;7.00;4.20;;;12.70;47.70;;;;;;5052162;28;20175;-43
2022/11/08 03:42:51;;;;;;;5.72;3.35;;;12.60;47.60;;;;;;5052146;28;20584;-43
2022/11/08 03:45:17;;;;;;;4.45;3.50;;;12.60;47.70;;;;;;5051952;28;20177;-43
2022/11/08 03:47:45;;;;;;;6.90;3.80;;;12.50;47.50;;;;;;5051485;28;20623;-43
2022/11/08 03:50:11;;;;;;;4.32;3.33;;;12.50;47.50;;;;;;5052206;28;20219;-43
2022/11/08 03:52:41;;;;;;;3.90;3.33;;;12.40;47.50;;;;;;5051827;28;20273;-43
2022/11/08 03:55:09;;;;;;;6.60;3.75;;;12.30;47.70;;;;;;5051904;28;20163;-43
2022/11/08 03:57:38;;;;;;;17.35;4.45;;;12.30;47.70;;;;;;5055721;28;20181;-43
2022/11/08 04:00:06;;;;;;;8.52;4.70;;;12.20;47.70;;;;;;5056209;28;20177;-43
2022/11/08 04:02:32;;;;;;;3.58;3.28;;;12.20;47.80;;;;;;5056013;28;20185;-43
2022/11/08 04:04:57;;;;;;;5.00;3.53;;;12.20;47.70;;;;;;5055922;28;20524;-43
2022/11/08 04:07:23;;;;;;;4.10;3.53;;;12.20;47.60;;;;;;5055291;28;20230;-43
2022/11/08 04:09:49;;;;;;;6.13;3.93;;;12.10;47.80;;;;;;5055788;28;20637;-43
2022/11/08 04:15:14;;;;;;;5.85;4.22;;;12.10;47.80;;;;;;5055809;28;20239;-43
2022/11/08 04:23:17;;;;;;;10.27;4.47;;;12.10;48.10;;;;;;5055800;28;20199;-43
2022/11/08 04:25:44;;;;;;;9.18;5.05;;;12.10;48.10;;;;;;5054982;28;20239;-43
2022/11/08 04:28:10;;;;;;;5.75;4.20;;;12.20;48.20;;;;;;5055631;28;20205;-43
2022/11/08 04:30:37;;;;;;;5.65;4.93;;;12.20;48.10;;;;;;5055299;28;20266;-43
2022/11/08 04:33:04;;;;;;;10.80;6.65;;;12.20;48.10;;;;;;5055270;28;20199;-43
2022/11/08 04:35:30;;;;;;;4.68;3.65;;;12.20;48.00;;;;;;5055485;28;20911;-43
2022/11/08 04:38:02;;;;;;;6.43;4.28;;;12.20;47.80;;;;;;5055217;28;20246;-43
2022/11/08 04:40:29;;;;;;;11.52;4.88;;;12.30;48.30;;;;;;5055559;28;20566;-43
2022/11/08 04:42:55;;;;;;;7.40;5.55;;;12.30;48.40;;;;;;5055098;28;20193;-43
2022/11/08 04:45:21;;;;;;;8.48;4.47;;;12.30;48.20;;;;;;5055080;28;20172;-43
2022/11/08 04:47:48;;;;;;;7.73;4.40;;;12.20;48.10;;;;;;5054424;28;20197;-43
2022/11/08 04:50:14;;;;;;;6.35;4.60;;;12.20;48.10;;;;;;5055050;28;20395;-43
2022/11/08 04:52:41;;;;;;;6.20;4.68;;;12.20;48.70;;;;;;5054949;28;20176;-43
2022/11/08 04:55:07;;;;;;;8.50;4.05;;;12.10;48.10;;;;;;5055052;28;20562;-43
2022/11/08 04:57:33;;;;;;;10.68;4.85;;;12.10;48.00;;;;;;5054272;28;20174;-43
2022/11/08 04:59:59;;;;;;;7.10;5.20;;;12.10;48.00;;;;;;5054726;28;20169;-43
2022/11/08 05:02:24;;;;;;;8.70;5.30;;;12.00;47.90;;;;;;5055011;28;20180;-43
2022/11/08 05:04:50;;;;;;;5.37;4.00;;;12.00;48.20;;;;;;5055067;28;20224;-43
2022/11/08 05:07:16;;;;;;;5.37;4.87;;;11.90;48.00;;;;;;5053074;28;20521;-44
2022/11/08 05:09:41;;;;;;;7.47;4.80;;;11.90;47.80;;;;;;5054804;28;20227;-44
2022/11/08 05:12:07;;;;;;;7.63;4.50;;;11.80;47.70;;;;;;5054617;28;20655;-44
2022/11/08 05:14:33;;;;;;;12.67;4.20;;;11.70;48.20;;;;;;5054452;28;20213;-43
2022/11/08 05:16:58;;;;;;;6.53;3.73;;;11.70;47.30;;;;;;5054207;28;20173;-44
2022/11/08 05:25:10;;;;;;;6.45;4.95;;;11.50;47.60;;;;;;5072027;28;20176;-43
2022/11/08 05:27:35;;;;;;;22.23;5.30;;;11.40;47.40;;;;;;5057246;28;20192;-45
2022/11/08 05:30:01;;;;;;;5.87;4.03;;;11.30;47.60;;;;;;5054456;28;20215;-45
2022/11/08 05:32:27;;;;;;;5.83;3.63;;;11.30;47.70;;;;;;5054259;28;20668;-44
2022/11/08 05:34:53;;;;;;;13.60;5.93;;;11.30;47.60;;;;;;5054249;28;20503;-45
2022/11/08 05:37:19;;;;;;;8.52;4.70;;;11.30;47.60;;;;;;5053600;28;20174;-44
2022/11/08 05:39:45;;;;;;;8.73;4.80;;;11.30;47.60;;;;;;5054134;28;20195;-42
2022/11/08 05:42:10;;;;;;;8.90;5.20;;;11.20;47.30;;;;;;5054177;28;20580;-42
2022/11/08 05:44:36;;;;;;;6.70;3.97;;;11.20;47.20;;;;;;5053941;28;20186;-42
2022/11/08 05:47:02;;;;;;;6.83;4.37;;;11.20;47.20;;;;;;5053764;28;20169;-42
2022/11/08 05:49:27;;;;;;;7.00;5.40;;;11.20;47.20;;;;;;5094423;22;20216;-42
2022/11/08 05:51:53;;;;;;;5.40;4.90;;;11.10;47.20;;;;;;5023724;28;20202;-45
2022/11/08 05:54:19;;;;;;;7.37;4.90;;;11.10;47.10;;;;;;5034180;28;20181;-45
2022/11/08 05:56:44;;;;;;;5.97;4.20;;;11.10;47.20;;;;;;5033366;28;20173;-45
2022/11/08 05:59:10;;;;;;;6.10;4.27;;;11.00;47.10;;;;;;5033895;28;20166;-45
2022/11/08 06:01:36;;;;;;;7.00;5.30;;;11.00;47.00;;;;;;5033773;28;20194;-44
2022/11/08 06:04:02;;;;;;;6.27;4.43;;;11.00;47.10;;;;;;5033863;28;20273;-44
2022/11/08 06:06:27;;;;;;;6.53;5.17;;;10.90;47.20;;;;;;5033446;28;20769;-45
2022/11/08 06:08:53;;;;;;;7.60;5.40;;;10.80;47.50;;;;;;5033525;28;20684;-44
2022/11/08 06:11:25;;;;;;;7.63;4.87;;;10.90;47.50;;;;;;5033531;28;20260;-45
2022/11/08 06:13:52;;;;;;;12.00;6.28;;;10.80;47.50;;;;;;5033540;28;20500;-45
2022/11/08 06:16:19;;;;;;;9.43;5.10;;;10.80;48.00;;;;;;5033031;28;20232;-44
2022/11/08 06:18:45;;;;;;;10.57;6.45;;;10.90;48.30;;;;;;5033242;28;20767;-44
2022/11/08 06:21:13;;;;;;;20.35;6.13;;;10.90;48.30;;;;;;5033607;28;20247;-45
2022/11/08 06:23:40;;;;;;;13.15;7.60;;;11.00;48.40;;;;;;5033543;28;20178;-43
2022/11/08 06:26:05;;;;;;;8.05;6.10;;;11.00;48.30;;;;;;5032813;28;20178;-43
2022/11/08 06:28:32;;;;;;;6.80;5.47;;;11.10;48.50;;;;;;5033114;28;20556;-43
2022/11/08 06:30:59;;;;;;;9.60;6.28;;;11.10;48.50;;;;;;5033240;28;20479;-45
2022/11/08 06:33:25;;;;;;;11.05;6.35;;;11.20;48.60;;;;;;5033241;28;20553;-45
2022/11/08 06:35:50;;;;;;;8.60;6.30;;;11.40;48.70;;;;;;5032632;28;20162;-45
2022/11/08 06:38:17;;;;;;;11.23;6.93;;;11.40;48.70;;;;;;5033078;28;21018;-44
2022/11/08 06:40:43;;;;;;;9.02;6.22;;;11.50;48.60;;;;;;5031731;28;20194;-44
2022/11/08 06:43:10;;;;;;;11.13;6.75;;;11.70;48.70;;;;;;5032984;28;20629;-45
2022/11/08 06:45:37;;;;;;;17.25;6.68;;;11.80;48.90;;;;;;5032290;28;20236;-43
2022/11/08 06:48:04;;;;;;;12.40;6.95;;;12.00;48.80;;;;;;5032853;28;20662;-45
2022/11/08 06:50:31;;;;;;;10.55;7.07;;;12.30;48.70;;;;;;5031408;28;20218;-44
2022/11/08 06:53:09;;;;;;;8.85;6.50;;;12.80;48.70;;;;;;5032919;28;20251;-44
2022/11/08 06:55:35;;;;;;;8.95;5.20;;;13.10;48.20;;;;;;5032486;28;20174;-45
2022/11/08 06:58:01;;;;;;;5.93;5.00;;;13.20;47.30;;;;;;5032730;28;20537;-44
2022/11/08 07:00:27;;;;;;;11.60;6.85;;;13.10;47.00;;;;;;5032714;28;20433;-46
2022/11/08 07:02:59;;;;;;;10.32;6.25;;;13.10;47.00;;;;;;5032995;28;20186;-45
2022/11/08 07:05:26;;;;;;;10.57;6.68;;;13.10;47.20;;;;;;5032871;28;20162;-46
2022/11/08 07:07:52;;;;;;;8.68;6.88;;;13.00;47.10;;;;;;5033124;28;20201;-44
2022/11/08 07:10:20;;;;;;;9.67;6.93;;;13.00;47.20;;;;;;5034199;28;20236;-46
2022/11/08 07:12:46;;;;;;;6.97;6.25;;;12.90;47.60;;;;;;5034356;28;20196;-45
2022/11/08 07:15:13;;;;;;;13.63;6.75;;;12.90;47.70;;;;;;5034065;28;20174;-45
2022/11/08 07:17:39;;;;;;;11.20;6.85;;;12.90;47.80;;;;;;5033940;28;20232;-43
2022/11/08 07:20:05;;;;;;;10.93;7.03;;;12.90;47.90;;;;;;5034148;28;20677;-44
2022/11/08 07:22:31;;;;;;;10.02;7.20;;;13.00;47.90;;;;;;5032418;28;20411;-43
2022/11/08 07:24:57;;;;;;;15.47;8.27;;;13.10;48.30;;;;;;5032417;28;20561;-44
2022/11/08 07:27:22;;;;;;;11.27;9.03;;;13.20;48.20;;;;;;5031554;28;20174;-44
2022/11/08 07:29:48;;;;;;;13.00;6.47;;;13.30;48.20;;;;;;5031853;28;20197;-45
2022/11/08 07:32:14;;;;;;;8.17;6.77;;;13.30;48.70;;;;;;5032041;28;20170;-46
2022/11/08 07:34:40;;;;;;;9.60;7.77;;;13.40;48.40;;;;;;5032125;28;20219;-43
2022/11/08 07:37:05;;;;;;;8.60;6.80;;;13.50;48.60;;;;;;5031632;28;20174;-43
2022/11/08 07:39:31;;;;;;;10.53;6.47;;;13.60;48.40;;;;;;5032107;28;20185;-44
2022/11/08 07:41:57;;;;;;;8.30;5.47;;;13.60;48.30;;;;;;5032032;28;20416;-45
2022/11/08 07:44:23;;;;;;;8.87;7.23;;;13.70;48.50;;;;;;5032116;28;20182;-44
2022/11/08 07:46:48;;;;;;;21.70;6.83;;;13.70;48.30;;;;;;5031735;28;20185;-47
2022/11/08 07:49:14;;;;;;;10.00;6.77;;;13.70;48.50;;;;;;5032005;28;20263;-44
2022/11/08 07:51:40;;;;;;;10.80;6.30;;;13.70;48.50;;;;;;5031798;28;20790;-45
2022/11/08 07:54:05;;;;;;;8.17;7.07;;;13.80;48.50;;;;;;5032285;28;20170;-45
2022/11/08 07:56:31;;;;;;;16.23;8.20;;;13.80;48.40;;;;;;5031318;28;20189;-45
2022/11/08 07:58:57;;;;;;;10.73;7.00;;;13.80;48.50;;;;;;5032018;28;20653;-45
2022/11/08 08:01:22;;;;;;;11.10;8.37;;;13.90;48.50;;;;;;5032207;28;20198;-45
2022/11/08 08:03:48;;;;;;;12.73;7.40;;;13.90;48.50;;;;;;5032163;28;20265;-45
2022/11/08 08:06:14;;;;;;;11.77;7.13;;;14.00;48.60;;;;;;5031396;28;20178;-45
2022/11/08 08:08:39;;;;;;;13.37;7.70;;;14.00;48.70;;;;;;5031921;28;20735;-45
2022/11/08 08:11:05;;;;;;;11.57;7.57;;;14.20;48.90;;;;;;5031772;28;20268;-44
2022/11/08 08:13:31;;;;;;;8.40;6.43;;;14.70;48.90;;;;;;5031943;28;20583;-45
2022/11/08 08:15:59;;;;;;;9.97;6.40;;;15.10;48.20;;;;;;5031518;28;20177;-44
2022/11/08 08:18:25;;;;;;;19.80;7.07;;;15.40;47.80;;;;;;5031845;28;20185;-45
2022/11/08 08:20:51;;;;;;;10.63;6.95;;;15.60;46.50;;;;;;5031549;28;20332;-47
2022/11/08 08:23:17;;;;;;;12.67;7.30;;;15.80;46.20;;;;;;5031829;28;20194;-44
2022/11/08 08:25:43;;;;;;;10.37;7.23;;;16.10;46.30;;;;;;5031307;28;20178;-45
2022/11/08 08:28:09;;;;;;;10.10;7.97;;;16.40;46.00;;;;;;5031641;28;20276;-45
2022/11/08 08:30:35;;;;;;;8.52;6.13;;;16.70;45.30;;;;;;5031592;28;20192;-45
2022/11/08 08:33:14;;;;;;;8.68;6.43;;;17.20;44.80;;;;;;5031645;28;20273;-45
2022/11/08 08:35:42;;;;;;;12.75;6.00;;;17.80;43.10;;;;;;5030942;28;20661;-45
2022/11/08 08:38:10;;;;;;;11.70;6.72;;;18.30;42.10;;;;;;5031560;28;20189;-46
2022/11/08 08:40:35;;;;;;;8.88;6.50;;;18.80;40.50;;;;;;5031462;28;20213;-45
2022/11/08 08:43:03;;;;;;;8.80;6.37;;;19.30;39.70;;;;;;5034680;28;20169;-46
2022/11/08 08:45:30;;;;;;;8.45;5.95;;;19.80;39.90;;;;;;5035454;28;20188;-46
2022/11/08 08:47:57;;;;;;;10.23;6.05;;;20.40;39.70;;;;;;5034890;28;20924;-46
2022/11/08 08:50:24;;;;;;;11.48;6.05;;;21.00;38.40;;;;;;5034966;28;20213;-45
2022/11/08 08:52:50;;;;;;;9.20;5.60;;;21.50;37.60;;;;;;5035056;28;20178;-46
2022/11/08 08:55:16;;;;;;;6.40;4.97;;;21.60;35.70;;;;;;5035244;28;20272;-47
2022/11/08 08:57:46;;;;;;;6.88;5.32;;;21.50;36.10;;;;;;5034498;28;20558;-46
2022/11/08 09:00:13;;;;;;;5.78;4.72;;;21.40;36.50;;;;;;5034984;28;20249;-45
2022/11/08 09:02:40;;;;;;;11.85;5.78;;;21.30;36.20;;;;;;5035281;28;20236;-46
2022/11/08 09:05:06;;;;;;;7.93;4.68;;;21.20;36.00;;;;;;5034969;28;20197;-46
2022/11/08 09:07:31;;;;;;;7.10;5.78;;;20.90;36.40;;;;;;5034057;28;20545;-47
2022/11/08 09:09:57;;;;;;;6.50;5.20;;;20.70;36.70;;;;;;5034925;28;20284;-45
2022/11/08 09:12:23;;;;;;;5.97;4.37;;;20.50;37.10;;;;;;5034732;28;20170;-46
2022/11/08 09:14:49;;;;;;;9.83;5.07;;;20.20;37.40;;;;;;5035003;28;20166;-45
2022/11/08 09:17:15;;;;;;;6.63;5.93;;;20.00;37.70;;;;;;5034066;28;20186;-46
2022/11/08 09:19:40;;;;;;;6.73;6.03;;;19.90;37.30;;;;;;5034826;28;20189;-46
2022/11/08 09:22:06;;;;;;;6.63;4.90;;;19.70;38.10;;;;;;5034830;28;20768;-46
2022/11/08 09:24:35;;;;;;;10.30;6.60;;;19.50;38.10;;;;;;5034631;28;20174;-45
2022/11/08 09:27:03;;;;;;;8.25;5.35;;;19.40;38.90;;;;;;5034131;28;20181;-46
2022/11/08 09:29:30;;;;;;;11.93;4.85;;;19.20;39.00;;;;;;5034303;28;20681;-47
2022/11/08 09:31:56;;;;;;;8.48;5.47;;;19.10;38.60;;;;;;5034344;28;20174;-47
2022/11/08 09:34:22;;;;;;;5.77;4.40;;;19.10;39.00;;;;;;5034378;28;20664;-46
2022/11/08 09:36:48;;;;;;;6.70;5.60;;;19.00;39.20;;;;;;5033778;28;20166;-46
2022/11/08 09:39:15;;;;;;;6.43;4.88;;;19.00;39.20;;;;;;5034467;28;20413;-46
2022/11/08 09:41:43;;;;;;;7.28;5.53;;;19.00;39.50;;;;;;5034067;28;20584;-45
2022/11/08 09:44:26;;;;;;;8.40;5.10;;;19.10;39.40;;;;;;5034530;28;20170;-47
2022/11/08 09:46:55;;;;;;;5.47;4.03;;;19.20;39.50;;;;;;5033512;28;20228;-45
2022/11/08 09:49:27;;;;;;;6.35;4.32;;;19.20;39.00;;;;;;5034042;28;20193;-46
2022/11/08 09:51:53;;;;;;;5.32;4.60;;;19.20;38.80;;;;;;5034108;28;20198;-45
2022/11/08 09:54:37;;;;;;;5.63;4.87;;;19.70;39.00;;;;;;5033321;28;20209;-46
2022/11/08 09:57:05;;;;;;;7.93;4.18;;;20.40;38.00;;;;;;5033357;28;20462;-45
2022/11/08 09:59:36;;;;;;;7.15;4.88;;;20.70;37.30;;;;;;5033740;28;20638;-44
2022/11/08 10:02:13;;;;;;;7.60;4.60;;;21.20;36.20;;;;;;5034016;28;20185;-45
2022/11/08 10:04:39;;;;;;;6.88;3.70;;;21.50;35.80;;;;;;5033816;28;20169;-45
2022/11/08 10:07:19;;;;;;;8.43;5.27;;;21.40;36.50;;;;;;5033178;28;20196;-44
2022/11/08 10:10:17;;;;;;;9.63;5.25;;;21.50;35.50;;;;;;5033530;28;20206;-46
2022/11/08 10:12:59;;;;;;;5.75;4.25;;;21.60;35.50;;;;;;5033899;28;20181;-44
2022/11/08 10:15:47;;;;;;;6.13;4.53;;;21.60;34.90;;;;;;5032336;28;20173;-48
2022/11/08 10:18:16;;;;;;;9.75;4.60;;;21.90;36.10;;;;;;5033721;28;20543;-47
2022/11/08 10:21:04;;;;;;;8.85;4.70;;;21.90;35.70;;;;;;5033581;28;20198;-46
2022/11/08 10:23:38;;;;;;;7.18;4.55;;;22.00;36.20;;;;;;5033386;28;20634;-46
2022/11/08 10:26:19;;;;;;;6.53;4.20;;;22.10;35.10;;;;;;5032789;28;20200;-45
2022/11/08 10:28:54;;;;;;;4.70;3.73;;;22.10;34.40;;;;;;5033215;28;20515;-45
2022/11/08 10:31:20;;;;;;;7.27;3.63;;;21.90;34.50;;;;;;5033260;28;20456;-45
2022/11/08 10:33:54;;;;;;;5.30;3.80;;;21.70;34.70;;;;;;5033448;28;20425;-46
2022/11/08 10:36:33;;;;;;;8.55;4.82;;;21.60;35.20;;;;;;5032684;28;20415;-47
2022/11/08 10:39:10;;;;;;;5.95;3.97;;;21.40;35.00;;;;;;5033088;28;20256;-45
2022/11/08 10:42:12;;;;;;;7.43;3.95;;;21.30;35.20;;;;;;5033038;28;20193;-46
2022/11/08 10:44:39;;;;;;;6.03;3.83;;;21.40;35.90;;;;;;5033032;28;20626;-47
2022/11/08 10:47:11;;;;;;;5.20;3.37;;;21.50;36.10;;;;;;5032756;28;20211;-45
2022/11/08 10:49:42;;;;;;;9.17;3.83;;;21.70;36.10;;;;;;5032594;28;20979;-46
2022/11/08 10:52:10;;;;;;;7.30;3.30;;;21.80;36.20;;;;;;5033040;28;20419;-46
2022/11/08 10:54:52;;;;;;;9.00;3.50;;;21.90;36.00;;;;;;5033036;28;20177;-47
2022/11/08 10:57:26;;;;;;;10.73;3.28;;;21.80;34.20;;;;;;5032368;28;20420;-47
2022/11/08 10:59:53;;;;;;;3.67;2.90;;;21.70;34.90;;;;;;5033001;28;20189;-46
2022/11/08 11:02:30;;;;;;;4.43;3.65;;;21.70;35.70;;;;;;5034919;28;20474;-44
2022/11/08 11:05:14;;;;;;;3.03;2.50;;;21.80;35.50;;;;;;5036249;28;20162;-44
2022/11/08 11:07:43;;;;;;;3.97;2.65;;;21.80;35.70;;;;;;5035759;28;20176;-45
2022/11/08 11:10:36;;;;;;;16.13;3.23;;;21.80;35.50;;;;;;5036523;28;20276;-45
2022/11/08 11:13:09;;;;;;;8.02;2.30;;;21.90;35.00;;;;;;5036324;28;20511;-45
2022/11/08 11:15:36;;;;;;;6.77;2.63;;;21.90;35.00;;;;;;5035802;28;20203;-45
2022/11/08 11:18:04;;;;;;;5.95;3.38;;;21.90;34.60;;;;;;5035762;28;20411;-47
2022/11/08 11:20:30;;;;;;;6.50;3.20;;;21.90;34.60;;;;;;5032349;28;20205;-46
2022/11/08 11:22:58;;;;;;;5.77;2.33;;;21.80;35.20;;;;;;5032362;28;20613;-46
2022/11/08 11:25:24;;;;;;;2.97;2.10;;;21.80;34.90;;;;;;5032275;28;20503;-47
2022/11/08 11:27:59;;;;;;;3.73;2.20;;;21.80;34.40;;;;;;5031868;28;20487;-46
2022/11/08 11:30:33;;;;;;;3.40;2.27;;;21.90;35.40;;;;;;5032226;28;20516;-45
2022/11/08 11:33:19;;;;;;;3.60;1.90;;;22.10;35.40;;;;;;5032477;28;20388;-47
2022/11/08 11:36:08;;;;;;;4.10;2.23;;;22.20;32.20;;;;;;5031644;28;20392;-45
2022/11/08 11:38:54;;;;;;;2.78;1.92;;;22.20;33.90;;;;;;5032398;28;20404;-47
2022/11/08 11:41:40;;;;;;;3.47;1.87;;;22.40;31.10;;;;;;5032185;28;20232;-45
2022/11/08 11:44:29;;;;;;;2.87;1.47;;;22.50;31.00;;;;;;5032240;28;20381;-47
2022/11/08 11:47:03;;;;;;;2.70;1.03;;;23.10;29.40;;;;;;5031522;28;20396;-47
2022/11/08 11:49:30;;;;;;;2.47;1.60;;;23.10;29.20;;;;;;5031870;28;20460;-45
2022/11/08 11:51:57;;;;;;;2.57;1.50;;;23.30;28.70;;;;;;5031961;28;20407;-45
2022/11/08 11:54:33;;;;;;;9.30;1.83;;;23.40;27.60;;;;;;5032020;28;20419;-46
2022/11/08 11:57:19;;;;;;;4.50;1.50;;;23.50;27.40;;;;;;5031426;28;20503;-46
2022/11/08 12:00:09;;;;;;;2.70;1.70;;;23.30;27.20;;;;;;5031331;28;20447;-46
2022/11/08 12:02:53;;;;;;;2.40;1.60;;;23.20;27.00;;;;;;5031888;28;20912;-47
2022/11/08 12:06:03;;;;;;;2.07;1.30;;;23.00;28.70;;;;;;5031853;28;20400;-46
2022/11/08 12:08:50;;;;;;;4.67;2.77;;;23.10;28.20;;;;;;5031126;28;20465;-45
2022/11/08 12:11:36;;;;;;;4.70;2.13;;;23.10;28.70;;;;;;5032056;28;20863;-46
2022/11/08 12:14:29;;;;;;;3.87;1.73;;;23.20;28.10;;;;;;5031793;28;20400;-46
2022/11/08 12:17:21;;;;;;;2.80;1.93;;;23.20;27.50;;;;;;5032914;28;20385;-46
2022/11/08 12:20:08;;;;;;;4.03;1.40;;;23.20;28.50;;;;;;5034548;28;20436;-45
2022/11/08 12:22:58;;;;;;;3.33;1.83;;;23.20;28.80;;;;;;5035651;28;20749;-45
2022/11/08 12:25:45;;;;;;;3.03;1.87;;;23.30;26.90;;;;;;5035598;28;20409;-46
2022/11/08 12:28:49;;;;;;;6.13;1.80;;;23.40;26.90;;;;;;5035502;28;20452;-46
2022/11/08 12:31:27;;;;;;;3.13;1.43;;;23.80;27.10;;;;;;5035414;28;20428;-45
2022/11/08 12:34:28;;;;;;;2.40;1.60;;;24.10;25.70;;;;;;5035751;28;20815;-45
2022/11/08 12:37:18;;;;;;;3.33;2.23;;;24.90;24.90;;;;;;5034866;28;20837;-46
2022/11/08 12:39:45;;;;;;;1.93;1.20;;;25.30;22.90;;;;;;5065564;22;20587;-43
2022/11/08 12:42:41;;;;;;;2.80;1.40;;;25.80;23.70;;;;;;5035548;28;20428;-43
2022/11/08 12:45:27;;;;;;;2.27;1.23;;;26.70;22.50;;;;;;5035564;28;20377;-43
2022/11/08 12:47:57;;;;;;;1.93;1.20;;;27.10;22.30;;;;;;5034896;28;20407;-43
2022/11/08 12:50:41;;;;;;;4.00;1.40;;;27.40;22.90;;;;;;5035161;28;20385;-43
2022/11/08 12:53:40;;;;;;;2.43;1.70;;;27.60;21.40;;;;;;5035218;28;20385;-43
2022/11/08 12:56:16;;;;;;;2.77;1.30;;;27.70;21.20;;;;;;5034670;28;20400;-43
2022/11/08 12:58:48;;;;;;;2.30;1.53;;;27.60;21.90;;;;;;5034971;28;20431;-43
2022/11/08 13:01:16;;;;;;;4.17;1.73;;;27.20;20.70;;;;;;5035173;28;20408;-43
2022/11/08 13:03:41;;;;;;;3.17;1.90;;;26.60;21.00;;;;;;5035111;28;20416;-43
2022/11/08 13:06:21;;;;;;;2.53;1.30;;;26.10;21.90;;;;;;5034433;28;20412;-43
2022/11/08 13:09:22;;;;;;;4.10;1.60;;;25.40;22.30;;;;;;5034791;28;20198;-42
2022/11/08 13:12:06;;;;;;;3.37;2.20;;;24.70;23.10;;;;;;5034767;28;20420;-43
2022/11/08 13:14:33;;;;;;;5.60;2.60;;;24.40;25.80;;;;;;5034758;28;20761;-43
2022/11/08 13:17:08;;;;;;;4.47;2.57;;;24.30;27.50;;;;;;5034193;28;20400;-43
2022/11/08 13:19:56;;;;;;;2.70;1.90;;;24.50;26.50;;;;;;5033253;28;20502;-43
2022/11/08 13:22:31;;;;;;;2.90;1.87;;;24.50;25.70;;;;;;5034637;28;20842;-43
2022/11/08 13:25:05;;;;;;;6.17;2.70;;;24.30;26.70;;;;;;5034854;28;20416;-43